^^
Meteo Knjazevac Station Historical Data
Daily Summary for June 27, 2022 Units:  English    Metric   Both
Daily Weekly Monthly Yearly Custom
  High: Low: Average:
Temperature: 89.6 °F 57.6 °F 74.2 °F
Dew Point: 71.9 °F 57.3 °F 65 °F
Humidity: 99% 47% 76%
Wind Speed: 7mph 0mph 1.8mph
Wind Gust: 14mph - -
Wind- - SW
Pressure: 30.14 in 30.07 in -
Precipitation: 0.01 in    
Historical Graphs
 
 
Tabular Data for June 27, 2022
Time Temperature Dew Point Pressure Wind Wind Speed Wind Gust Humidity Rainfall Rate (Hourly) solar Conditions
00:00 63.7 °F 62.2 °F 30.11 in WSW 3 mph 4 mph 95% 0.00 in 0 W/m2
00:10 63.1 °F 62 °F 30.11 in West 2 mph 4 mph 96% 0.00 in 0 W/m2
00:20 63 °F 61.8 °F 30.11 in West 1 mph 4 mph 96% 0.00 in 0 W/m2
00:30 62.8 °F 61.6 °F 30.11 in NNW 1 mph 2 mph 96% 0.00 in 0 W/m2
00:40 62.8 °F 61.6 °F 30.11 in Calm   2 mph 96% 0.00 in 0 W/m2
00:50 62.5 °F 61.4 °F 30.11 in West 1 mph 3 mph 96% 0.00 in 0 W/m2
01:00 62.2 °F 61.7 °F 30.12 in Calm     98% 0.00 in 0 W/m2
01:10 62.2 °F 61.7 °F 30.12 in Calm   1 mph 98% 0.00 in 0 W/m2
01:20 62.1 °F 61.5 °F 30.12 in NNW 1 mph 2 mph 98% 0.00 in 0 W/m2
01:30 61.9 °F 61.3 °F 30.12 in WSW 1 mph 2 mph 98% 0.00 in 0 W/m2
01:40 61.5 °F 61 °F 30.12 in WNW 1 mph 3 mph 98% 0.00 in 0 W/m2
01:50 61.5 °F 61 °F 30.12 in West 1 mph 3 mph 98% 0.00 in 0 W/m2
02:10 61 °F 60.4 °F 30.12 in Calm   2 mph 98% 0.00 in 0 W/m2
02:20 60.8 °F 60.2 °F 30.12 in West 2 mph 3 mph 98% 0.00 in 0 W/m2
02:30 60.4 °F 59.9 °F 30.12 in Calm   2 mph 98% 0.00 in 0 W/m2
02:40 60.3 °F 59.7 °F 30.12 in WSW 1 mph 2 mph 98% 0.00 in 0 W/m2
03:00 59.9 °F 59.6 °F 30.12 in West 2 mph 3 mph 99% 0.00 in 0 W/m2
03:10 59.7 °F 59.4 °F 30.12 in Calm   3 mph 99% 0.00 in 0 W/m2
03:20 59.7 °F 59.4 °F 30.12 in NW 1 mph 2 mph 99% 0.00 in 0 W/m2
03:30 59.5 °F 59.3 °F 30.12 in Calm   2 mph 99% 0.00 in 0 W/m2
03:40 59.4 °F 59.1 °F 30.12 in Calm   2 mph 99% 0.00 in 0 W/m2
04:00 59 °F 58.7 °F 30.12 in WSW 2 mph 3 mph 99% 0.00 in 0 W/m2
04:10 58.7 °F 58.5 °F 30.12 in Calm   2 mph 99% 0.00 in 0 W/m2
04:20 58.6 °F 58.4 °F 30.12 in WSW 1 mph 2 mph 99% 0.00 in 0 W/m2
04:30 58.5 °F 58.2 °F 30.12 in WNW 1 mph 3 mph 99% 0.00 in 0 W/m2
04:40 58.5 °F 58.2 °F 30.12 in Calm   2 mph 99% 0.00 in 0 W/m2
04:50 58.5 °F 58.2 °F 30.12 in Calm   1 mph 99% 0.00 in 0 W/m2
05:00 58.1 °F 57.8 °F 30.12 in Calm   1 mph 99% 0.00 in 7 W/m2
05:10 57.9 °F 57.6 °F 30.12 in Calm   2 mph 99% 0.01 in 12 W/m2
05:20 57.8 °F 57.6 °F 30.12 in WSW 2 mph 3 mph 99% 0.00 in 21 W/m2
05:30 57.6 °F 57.3 °F 30.12 in West 2 mph 4 mph 99% 0.00 in 29 W/m2
05:40 57.6 °F 57.3 °F 30.13 in West 1 mph 4 mph 99% 0.00 in 38 W/m2
05:50 57.7 °F 57.5 °F 30.13 in Calm   2 mph 99% 0.00 in 47 W/m2
06:10 58.1 °F 57.8 °F 30.13 in Calm     99% 0.00 in 107 W/m2
06:20 58.3 °F 58 °F 30.13 in Calm   1 mph 99% 0.00 in 125 W/m2
06:30 58.5 °F 58.3 °F 30.13 in Calm   2 mph 99% 0.00 in 144 W/m2
06:40 58.8 °F 58.5 °F 30.14 in WNW 1 mph 3 mph 99% 0.00 in 172 W/m2
06:50 59.2 °F 58.9 °F 30.14 in Calm   2 mph 99% 0.00 in 208 W/m2
07:00 59.6 °F 59.4 °F 30.14 in WNW 1 mph 2 mph 99% 0.00 in 234 W/m2
07:10 60.3 °F 60 °F 30.13 in Calm   2 mph 99% 0.00 in 262 W/m2
07:20 60.6 °F 60.3 °F 30.14 in WNW 1 mph 3 mph 99% 0.00 in 300 W/m2
07:40 61.8 °F 61.5 °F 30.14 in NW 1 mph 4 mph 99% 0.00 in 367 W/m2
07:50 62.4 °F 62.1 °F 30.14 in NW 1 mph 4 mph 99% 0.00 in 399 W/m2
08:00 63 °F 62.7 °F 30.14 in Calm   3 mph 99% 0.00 in 436 W/m2
08:10 63.8 °F 63.5 °F 30.14 in WSW 1 mph 3 mph 99% 0.00 in 462 W/m2
08:20 65.4 °F 65.1 °F 30.14 in WSW 1 mph 3 mph 99% 0.00 in 505 W/m2
08:30 67.1 °F 65.9 °F 30.14 in WNW 1 mph 3 mph 96% 0.00 in 544 W/m2
08:40 68.6 °F 66.5 °F 30.14 in Calm   4 mph 93% 0.00 in 574 W/m2
08:50 70 °F 66.6 °F 30.14 in SE 1 mph 5 mph 89% 0.00 in 608 W/m2
09:00 71.2 °F 67.1 °F 30.14 in Calm   4 mph 87% 0.00 in 633 W/m2
09:10 72.5 °F 67.4 °F 30.14 in WNW 1 mph 3 mph 84% 0.00 in 663 W/m2
09:20 73.6 °F 68.1 °F 30.14 in ENE 1 mph 6 mph 83% 0.00 in 695 W/m2
09:30 74.6 °F 68 °F 30.14 in NNE 1 mph 6 mph 80% 0.00 in 722 W/m2
09:50 76.3 °F 68.5 °F 30.14 in NE 2 mph 7 mph 77% 0.00 in 776 W/m2
10:00 77.2 °F 69 °F 30.14 in North 1 mph 6 mph 76% 0.00 in 801 W/m2
10:10 77.8 °F 69.7 °F 30.14 in NE 3 mph 6 mph 76% 0.00 in 824 W/m2
10:20 78.5 °F 69.6 °F 30.14 in NNE 2 mph 5 mph 74% 0.00 in 849 W/m2
10:30 79.2 °F 69.8 °F 30.14 in NE 2 mph 8 mph 73% 0.00 in 870 W/m2
10:40 79.8 °F 68.7 °F 30.14 in NE 3 mph 8 mph 69% 0.00 in 765 W/m2
10:50 80.4 °F 68.9 °F 30.13 in North 3 mph 6 mph 68% 0.00 in 896 W/m2
11:00 81.1 °F 67.8 °F 30.13 in North 3 mph 7 mph 64% 0.00 in 916 W/m2
11:10 81.7 °F 68.3 °F 30.13 in North 2 mph 7 mph 64% 0.00 in 929 W/m2
11:20 82 °F 68.7 °F 30.13 in NNW 3 mph 6 mph 64% 0.00 in 368 W/m2
11:30 82.6 °F 68.7 °F 30.13 in NNE 2 mph 9 mph 63% 0.00 in 950 W/m2
11:50 83.5 °F 69.6 °F 30.12 in NNE 3 mph 7 mph 63% 0.00 in 965 W/m2
12:00 83.8 °F 68.5 °F 30.12 in NNE 2 mph 8 mph 60% 0.00 in 401 W/m2
12:10 84.6 °F 70.6 °F 30.12 in NNE 5 mph 7 mph 63% 0.00 in 383 W/m2
12:20 85.1 °F 70.6 °F 30.11 in North 2 mph 12 mph 62% 0.00 in 886 W/m2
12:30 85.5 °F 71 °F 30.11 in NNE 3 mph 9 mph 62% 0.00 in 957 W/m2
12:40 85.9 °F 71.9 °F 30.10 in NNE 3 mph 7 mph 63% 0.00 in 440 W/m2
12:50 86.4 °F 70.8 °F 30.10 in NNE 7 mph 14 mph 60% 0.00 in 690 W/m2
13:00 86.7 °F 70.7 °F 30.10 in North 3 mph 7 mph 59% 0.00 in 971 W/m2
13:10 87.2 °F 70.6 °F 30.10 in NNE 5 mph 8 mph 58% 0.00 in 966 W/m2
13:20 86.6 °F 69.6 °F 30.10 in NNW 3 mph 7 mph 57% 0.00 in 960 W/m2
13:30 87.1 °F 69 °F 30.10 in North 2 mph 10 mph 55% 0.00 in 220 W/m2
13:40 87.1 °F 68.4 °F 30.10 in North 2 mph 8 mph 54% 0.00 in 942 W/m2
13:50 87.4 °F 67.1 °F 30.09 in NNE 3 mph 8 mph 51% 0.00 in 931 W/m2
14:00 87.8 °F 66.8 °F 30.09 in North 2 mph 6 mph 50% 0.00 in 919 W/m2
14:10 88 °F 65.8 °F 30.09 in North 7 mph 10 mph 48% 0.00 in 905 W/m2
14:20 88.3 °F 66.2 °F 30.09 in North 3 mph 7 mph 48% 0.00 in 890 W/m2
14:30 88.5 °F 66.9 °F 30.09 in North 3 mph 8 mph 49% 0.00 in 874 W/m2
14:40 88.9 °F 67.2 °F 30.09 in North 2 mph 8 mph 49% 0.00 in 856 W/m2
14:50 89.2 °F 68.2 °F 30.09 in North 5 mph 12 mph 50% 0.00 in 837 W/m2
15:00 89.4 °F 67.7 °F 30.08 in NNE 1 mph 9 mph 49% 0.00 in 817 W/m2
15:10 89.4 °F 66.5 °F 30.08 in NNE 6 mph 10 mph 47% 0.00 in 796 W/m2
15:20 89.1 °F 67.4 °F 30.08 in NNE 5 mph 12 mph 49% 0.00 in 774 W/m2
15:30 89.4 °F 67.7 °F 30.08 in NNE 5 mph 12 mph 49% 0.00 in 751 W/m2
15:50 89.4 °F 66.5 °F 30.08 in North 5 mph 9 mph 47% 0.00 in 701 W/m2
16:00 89.4 °F 68.3 °F 30.08 in North 2 mph 9 mph 50% 0.00 in 675 W/m2
16:10 89.6 °F 68.5 °F 30.08 in Calm   8 mph 50% 0.00 in 175 W/m2
16:20 88.3 °F 67.9 °F 30.08 in North 3 mph 9 mph 51% 0.00 in 550 W/m2
16:30 88.5 °F 67.5 °F 30.08 in North 2 mph 7 mph 50% 0.00 in 577 W/m2
16:40 88.5 °F 67.5 °F 30.08 in NW 5 mph 8 mph 50% 0.00 in 556 W/m2
16:50 88.5 °F 68.1 °F 30.08 in NW 2 mph 7 mph 51% 0.00 in 504 W/m2
17:00 88.5 °F 68.6 °F 30.07 in NNW 3 mph 6 mph 52% 0.00 in 479 W/m2
17:10 88.9 °F 67.8 °F 30.07 in North 3 mph 7 mph 50% 0.00 in 452 W/m2
17:20 88.9 °F 67.8 °F 30.07 in North 2 mph 6 mph 50% 0.00 in 421 W/m2
17:40 88.7 °F 67.7 °F 30.07 in NNW 3 mph 7 mph 50% 0.00 in 348 W/m2
17:50 88.5 °F 68.6 °F 30.07 in NNW 5 mph 7 mph 52% 0.00 in 317 W/m2
18:00 88.3 °F 69 °F 30.07 in North 2 mph 8 mph 53% 0.00 in 287 W/m2
18:10 88.2 °F 68.9 °F 30.07 in North 1 mph 8 mph 53% 0.00 in 251 W/m2
18:20 88 °F 68.7 °F 30.07 in North 2 mph 6 mph 53% 0.00 in 220 W/m2
18:30 87.8 °F 68.5 °F 30.07 in NNW 2 mph 5 mph 53% 0.00 in 189 W/m2
18:40 87.6 °F 68.9 °F 30.07 in North 2 mph 5 mph 54% 0.00 in 160 W/m2
18:50 87.1 °F 68.5 °F 30.07 in North 2 mph 6 mph 54% 0.00 in 134 W/m2
19:00 86.7 °F 68.1 °F 30.07 in North 2 mph 5 mph 54% 0.00 in 110 W/m2
19:10 86.4 °F 68.3 °F 30.07 in North 2 mph 5 mph 55% 0.00 in 88 W/m2
19:20 85.8 °F 68.8 °F 30.07 in NNW 1 mph 4 mph 57% 0.00 in 68 W/m2
19:40 84.6 °F 68.7 °F 30.07 in NNW 1 mph 5 mph 59% 0.00 in 35 W/m2
19:50 83.8 °F 68 °F 30.07 in NNW 2 mph 3 mph 59% 0.00 in 24 W/m2
20:00 82.8 °F 67.5 °F 30.07 in NNW 2 mph 3 mph 60% 0.00 in 14 W/m2
20:20 80.6 °F 67.7 °F 30.08 in South 2 mph 5 mph 65% 0.00 in 0 W/m2
20:30 79.4 °F 67.5 °F 30.08 in South 1 mph 4 mph 67% 0.00 in 0 W/m2
20:40 78.4 °F 67.4 °F 30.09 in SSW 1 mph 3 mph 69% 0.00 in 0 W/m2
20:50 77.4 °F 66.8 °F 30.09 in SW 2 mph 3 mph 70% 0.00 in 0 W/m2
21:00 76.6 °F 67.7 °F 30.10 in WSW 2 mph 5 mph 74% 0.00 in 0 W/m2
21:10 76 °F 68.2 °F 30.10 in WSW 1 mph 3 mph 77% 0.00 in 0 W/m2
21:20 75.2 °F 67.5 °F 30.10 in SW 2 mph 4 mph 77% 0.00 in 0 W/m2
21:30 74.5 °F 67.2 °F 30.10 in SW 2 mph 4 mph 78% 0.00 in 0 W/m2
21:50 73.3 °F 65.6 °F 30.11 in South 1 mph 4 mph 77% 0.00 in 0 W/m2
22:10 71.8 °F 66.3 °F 30.11 in WSW 3 mph 4 mph 83% 0.00 in 0 W/m2
22:40 70.2 °F 65.1 °F 30.11 in WNW 1 mph 2 mph 84% 0.00 in 0 W/m2
22:50 69.8 °F 65.1 °F 30.11 in West 2 mph 4 mph 85% 0.00 in 0 W/m2
23:00 69.3 °F 65 °F 30.11 in West 1 mph 4 mph 86% 0.00 in 0 W/m2
23:10 68.9 °F 64.5 °F 30.11 in Calm   3 mph 86% 0.00 in 0 W/m2
23:20 68.5 °F 63.8 °F 30.11 in SE 1 mph 3 mph 85% 0.00 in 0 W/m2
23:30 68 °F 63.4 °F 30.11 in West 1 mph 2 mph 85% 0.00 in 0 W/m2
23:40 67.5 °F 62.8 °F 30.11 in Calm   2 mph 85% 0.00 in 0 W/m2
23:50 67.1 °F 63.4 °F 30.11 in NW 1 mph 2 mph 88% 0.00 in 0 W/m2
Knjazevac, Serbia
Compliments of Weather Underground - 2 mb